Time;durP1;ratioP1;P1;durP2;ratioP2;P2;SDS_P1;SDS_P2;PMS_P1;PMS_P2;Temp;Humidity;BMP_temperature;BMP_pressure;BME280_temperature;BME280_humidity;BME280_pressure;Samples;Min_cycle;Max_cycle;Signal;HPM_P1;HPM_P2
2021/08/26 00:00:06;;;;;;;1.40;0.60;;;17.20;87.90;;;;;;2033834;29;20131;-91
2021/08/26 00:05:43;;;;;;;0.80;0.60;;;17.20;88.00;;;;;;2034557;28;20444;-92
2021/08/26 00:06:37;;;;;;;0.80;0.50;;;17.30;87.80;;;;;;2051996;28;20043;-92
2021/08/26 00:07:38;;;;;;;0.60;0.50;;;17.30;87.70;;;;;;2049164;28;20094;-91
2021/08/26 00:08:39;;;;;;;1.45;0.50;;;17.30;87.70;;;;;;2040103;29;20039;-91
2021/08/26 00:09:40;;;;;;;1.08;0.50;;;17.30;87.80;;;;;;2041823;28;20040;-90
2021/08/26 00:10:41;;;;;;;0.73;0.60;;;17.30;87.90;;;;;;2040894;29;20082;-91
2021/08/26 00:11:47;;;;;;;1.38;0.80;;;17.30;87.80;;;;;;2046340;28;20423;-91
2021/08/26 00:12:47;;;;;;;1.05;0.50;;;17.30;87.80;;;;;;2050428;28;20028;-91
2021/08/26 00:13:51;;;;;;;2.25;0.80;;;17.30;87.80;;;;;;2048755;29;20043;-92
2021/08/26 00:14:51;;;;;;;1.75;0.65;;;17.20;87.80;;;;;;2046603;28;20044;-92
2021/08/26 00:15:55;;;;;;;1.02;0.70;;;17.20;87.80;;;;;;2050002;29;20043;-92
2021/08/26 00:16:56;;;;;;;2.10;0.73;;;17.30;88.50;;;;;;2054683;28;20042;-92
2021/08/26 00:17:58;;;;;;;2.05;0.77;;;17.20;87.90;;;;;;2055634;28;20042;-90
2021/08/26 00:18:59;;;;;;;1.17;0.70;;;17.20;88.00;;;;;;2056363;28;20038;-92
2021/08/26 00:20:00;;;;;;;1.27;0.70;;;17.20;88.00;;;;;;2047765;28;20046;-91
2021/08/26 00:21:01;;;;;;;1.17;0.70;;;17.20;88.00;;;;;;2041764;29;20481;-92
2021/08/26 00:22:03;;;;;;;1.70;0.70;;;17.20;88.00;;;;;;2049132;28;20039;-91
2021/08/26 00:23:04;;;;;;;0.95;0.70;;;17.20;88.10;;;;;;2041277;29;20107;-91
2021/08/26 00:24:06;;;;;;;1.10;0.70;;;17.20;88.40;;;;;;2039958;28;20046;-92
2021/08/26 00:25:07;;;;;;;1.17;0.80;;;17.20;88.20;;;;;;2049235;28;20077;-92
2021/08/26 00:26:08;;;;;;;1.10;0.80;;;17.20;88.20;;;;;;2057423;28;20481;-91
2021/08/26 00:27:09;;;;;;;1.58;0.75;;;17.20;88.20;;;;;;2056309;28;20042;-91
2021/08/26 00:28:09;;;;;;;2.22;0.80;;;17.20;88.20;;;;;;2057300;28;20035;-91
2021/08/26 00:29:10;;;;;;;1.83;0.80;;;17.20;88.20;;;;;;2046305;28;20031;-92
2021/08/26 00:30:11;;;;;;;2.17;0.93;;;17.20;88.20;;;;;;2041059;29;20503;-91
2021/08/26 00:31:11;;;;;;;1.63;0.70;;;17.20;88.30;;;;;;2048967;28;20110;-91
2021/08/26 00:32:12;;;;;;;3.13;0.98;;;17.20;88.30;;;;;;2064962;28;20045;-92
2021/08/26 00:33:13;;;;;;;1.80;0.80;;;17.20;88.30;;;;;;2049139;28;20035;-92
2021/08/26 00:34:13;;;;;;;1.30;0.70;;;17.20;88.20;;;;;;2048120;28;20043;-91
2021/08/26 00:35:15;;;;;;;1.52;0.70;;;17.20;88.20;;;;;;2038890;29;20139;-92
2021/08/26 00:36:16;;;;;;;0.98;0.70;;;17.20;88.80;;;;;;2033564;28;20032;-91
2021/08/26 00:37:17;;;;;;;1.80;0.73;;;17.20;88.30;;;;;;2040660;29;20060;-92
2021/08/26 00:38:20;;;;;;;2.15;0.70;;;17.20;88.30;;;;;;2033839;29;20113;-92
2021/08/26 00:39:21;;;;;;;1.42;0.90;;;17.20;88.20;;;;;;2047421;28;20489;-91
2021/08/26 00:40:21;;;;;;;2.28;0.70;;;17.20;88.30;;;;;;2056350;28;20067;-91
2021/08/26 00:41:25;;;;;;;2.08;0.90;;;17.20;88.30;;;;;;2051276;28;20051;-92
2021/08/26 00:42:25;;;;;;;1.23;0.77;;;17.20;88.30;;;;;;2065331;28;20084;-91
2021/08/26 00:43:27;;;;;;;2.25;0.90;;;17.20;88.30;;;;;;2064919;28;20039;-92
2021/08/26 00:44:28;;;;;;;1.38;0.70;;;17.20;88.30;;;;;;2054849;28;20410;-92
2021/08/26 00:45:29;;;;;;;1.63;0.77;;;17.20;88.20;;;;;;2055885;28;20066;-91
2021/08/26 00:46:29;;;;;;;3.80;1.33;;;17.20;88.20;;;;;;2056631;28;20039;-92
2021/08/26 00:47:30;;;;;;;1.38;0.80;;;17.20;88.30;;;;;;2041161;29;20538;-92
2021/08/26 00:48:31;;;;;;;1.42;0.70;;;17.20;88.30;;;;;;2041005;29;20039;-92
2021/08/26 00:49:31;;;;;;;1.95;0.80;;;17.20;88.30;;;;;;2032418;29;20551;-91
2021/08/26 00:50:32;;;;;;;2.05;0.80;;;17.20;88.30;;;;;;2041299;29;20509;-91
2021/08/26 00:51:34;;;;;;;3.15;0.80;;;17.20;88.30;;;;;;2051867;28;20074;-91
2021/08/26 00:52:37;;;;;;;1.50;0.73;;;17.20;88.30;;;;;;2057344;28;20462;-91
2021/08/26 00:53:39;;;;;;;2.08;0.77;;;17.20;88.30;;;;;;2063320;28;20442;-92
2021/08/26 00:54:40;;;;;;;1.80;0.80;;;17.20;88.80;;;;;;2048268;28;20032;-91
2021/08/26 00:55:41;;;;;;;2.45;0.90;;;17.20;88.20;;;;;;2049110;28;20047;-92
2021/08/26 00:56:41;;;;;;;2.25;0.77;;;17.20;88.20;;;;;;2065199;28;20038;-91
2021/08/26 00:57:42;;;;;;;2.63;0.80;;;17.20;88.20;;;;;;2057054;28;20078;-92
2021/08/26 00:58:46;;;;;;;3.53;0.90;;;17.20;88.10;;;;;;2049401;28;20210;-92
2021/08/26 00:59:47;;;;;;;2.60;0.80;;;17.20;88.00;;;;;;2057197;28;20074;-91
2021/08/26 01:00:57;;;;;;;2.72;0.80;;;17.10;88.10;;;;;;2061782;28;20049;-92
2021/08/26 01:02:04;;;;;;;1.50;0.77;;;17.10;88.20;;;;;;2064838;28;20407;-91
2021/08/26 01:03:11;;;;;;;2.10;0.70;;;17.10;88.20;;;;;;2055954;28;20208;-92
2021/08/26 01:04:23;;;;;;;1.40;0.70;;;17.10;88.20;;;;;;2041797;29;20031;-92
2021/08/26 01:05:43;;;;;;;1.83;0.70;;;17.10;88.20;;;;;;2053880;28;20086;-92
2021/08/26 01:06:50;;;;;;;1.98;0.90;;;17.10;88.20;;;;;;2057479;28;20111;-92
2021/08/26 01:08:02;;;;;;;2.05;0.90;;;17.10;88.20;;;;;;2062225;28;20105;-92
2021/08/26 01:09:04;;;;;;;2.72;0.90;;;17.10;88.20;;;;;;2064106;28;20520;-92
2021/08/26 01:10:07;;;;;;;1.80;0.80;;;17.10;88.20;;;;;;2064872;28;22029;-92
2021/08/26 01:11:09;;;;;;;2.38;0.82;;;17.10;88.20;;;;;;2063057;28;20042;-92
2021/08/26 01:12:15;;;;;;;2.95;0.90;;;17.10;88.20;;;;;;2055597;28;20521;-92
2021/08/26 01:13:16;;;;;;;2.67;0.70;;;17.10;88.10;;;;;;2057346;28;20035;-91
2021/08/26 01:14:18;;;;;;;1.50;0.80;;;17.10;88.10;;;;;;2062823;28;20520;-92
2021/08/26 01:15:19;;;;;;;3.38;0.90;;;17.10;88.10;;;;;;2057362;28;20045;-91
2021/08/26 01:16:20;;;;;;;2.40;1.00;;;17.10;88.10;;;;;;2056308;28;20043;-92
2021/08/26 01:17:29;;;;;;;2.25;0.82;;;17.10;88.00;;;;;;2058650;28;20604;-91
2021/08/26 01:18:34;;;;;;;3.67;0.93;;;17.10;88.00;;;;;;2049470;28;20520;-92
2021/08/26 01:19:35;;;;;;;2.30;0.90;;;17.10;88.00;;;;;;2055798;28;20046;-91
2021/08/26 01:20:35;;;;;;;3.92;1.17;;;17.10;87.80;;;;;;2055999;28;20134;-92
2021/08/26 01:21:36;;;;;;;1.60;0.80;;;17.10;87.80;;;;;;2048493;28;20039;-91
2021/08/26 01:22:37;;;;;;;2.45;1.00;;;17.00;87.80;;;;;;2054688;28;20051;-91
2021/08/26 01:23:43;;;;;;;2.45;0.90;;;17.00;87.70;;;;;;2056832;28;20107;-89
2021/08/26 01:24:46;;;;;;;2.00;0.82;;;17.00;87.60;;;;;;2057604;28;20023;-92
2021/08/26 01:25:49;;;;;;;2.40;1.08;;;17.00;87.60;;;;;;2058459;28;20083;-92
2021/08/26 01:26:55;;;;;;;1.98;0.80;;;17.00;87.60;;;;;;2061655;28;20046;-92
2021/08/26 01:28:03;;;;;;;1.83;0.80;;;17.00;87.50;;;;;;2066891;28;20500;-92
2021/08/26 01:29:06;;;;;;;2.45;0.90;;;17.00;87.50;;;;;;2066371;28;20057;-92
2021/08/26 01:30:10;;;;;;;3.45;1.10;;;16.90;87.40;;;;;;2066494;28;20035;-91
2021/08/26 01:31:10;;;;;;;1.75;0.80;;;16.90;88.00;;;;;;2058335;28;20043;-91
2021/08/26 01:32:11;;;;;;;4.45;1.33;;;16.90;87.40;;;;;;2053191;28;20520;-92
2021/08/26 01:33:12;;;;;;;3.53;1.15;;;16.90;87.20;;;;;;2052853;28;20070;-92
2021/08/26 01:34:17;;;;;;;2.65;1.13;;;16.90;87.10;;;;;;2056397;28;20046;-91
2021/08/26 01:35:19;;;;;;;4.03;1.08;;;16.90;87.20;;;;;;2045632;29;20115;-92
2021/08/26 01:36:22;;;;;;;2.55;1.05;;;16.80;87.20;;;;;;2044139;29;20028;-92
2021/08/26 01:37:24;;;;;;;2.63;0.95;;;16.90;87.10;;;;;;2049805;28;20528;-92
2021/08/26 01:38:25;;;;;;;3.22;1.17;;;16.80;87.10;;;;;;2058235;28;20043;-92
2021/08/26 01:39:26;;;;;;;2.25;1.15;;;16.80;87.10;;;;;;2054740;28;20041;-92
2021/08/26 01:40:37;;;;;;;2.80;1.08;;;16.80;87.10;;;;;;2054157;28;20047;-91
2021/08/26 01:41:44;;;;;;;2.97;1.00;;;16.80;87.60;;;;;;2059333;28;20456;-91
2021/08/26 01:42:45;;;;;;;4.15;1.20;;;16.80;87.00;;;;;;2058906;28;20073;-92
2021/08/26 01:43:47;;;;;;;4.60;1.00;;;16.80;86.90;;;;;;2058695;28;20042;-91
2021/08/26 01:44:48;;;;;;;2.40;1.10;;;16.80;86.90;;;;;;2055926;28;20535;-91
2021/08/26 01:45:49;;;;;;;3.70;1.20;;;16.80;86.80;;;;;;2051750;29;20035;-92
2021/08/26 01:46:51;;;;;;;2.72;1.20;;;16.80;86.70;;;;;;2059899;28;20049;-92
2021/08/26 01:47:52;;;;;;;3.38;1.35;;;16.80;86.70;;;;;;2057172;28;20120;-93
2021/08/26 01:48:52;;;;;;;3.50;1.10;;;16.80;86.70;;;;;;2041843;29;20573;-91
2021/08/26 01:49:53;;;;;;;2.72;1.25;;;16.80;86.70;;;;;;2048888;28;20043;-91
2021/08/26 01:50:54;;;;;;;2.65;0.90;;;16.80;86.70;;;;;;2040680;28;20109;-92
2021/08/26 01:51:55;;;;;;;3.60;1.00;;;16.80;86.70;;;;;;2050213;28;20114;-92
2021/08/26 01:52:55;;;;;;;3.88;1.17;;;16.80;86.60;;;;;;2050271;28;20070;-92
2021/08/26 01:53:56;;;;;;;2.90;1.30;;;16.80;86.60;;;;;;2050028;28;20051;-93
2021/08/26 01:55:00;;;;;;;4.30;1.00;;;16.80;86.60;;;;;;2052053;29;20079;-91
2021/08/26 01:56:01;;;;;;;3.03;1.20;;;16.80;86.60;;;;;;2058602;28;20058;-91
2021/08/26 01:57:03;;;;;;;3.75;1.10;;;16.80;86.60;;;;;;2058671;28;20039;-92
2021/08/26 01:58:04;;;;;;;2.88;1.30;;;16.80;86.50;;;;;;2049635;28;20115;-91
2021/08/26 01:59:05;;;;;;;3.17;1.10;;;16.80;86.40;;;;;;2058849;28;20046;-93
2021/08/26 02:00:08;;;;;;;3.45;1.27;;;16.80;86.40;;;;;;2066232;28;20093;-91
2021/08/26 02:01:09;;;;;;;3.10;1.10;;;16.80;86.40;;;;;;2048912;28;20074;-91
2021/08/26 02:02:09;;;;;;;1.67;0.90;;;16.80;86.50;;;;;;2054048;28;20031;-92
2021/08/26 02:03:10;;;;;;;2.75;1.10;;;16.80;86.40;;;;;;2064516;28;20106;-92
2021/08/26 02:04:11;;;;;;;2.95;1.10;;;16.80;86.40;;;;;;2058207;28;20621;-92
2021/08/26 02:05:11;;;;;;;3.78;1.42;;;16.80;86.40;;;;;;2057754;28;20063;-92
2021/08/26 02:06:12;;;;;;;2.75;1.00;;;16.70;86.40;;;;;;2063612;28;20480;-92
2021/08/26 02:07:13;;;;;;;4.50;1.20;;;16.80;86.40;;;;;;2063569;28;20584;-92
2021/08/26 02:08:13;;;;;;;3.75;1.30;;;16.80;86.40;;;;;;2063610;28;20027;-91
2021/08/26 02:09:14;;;;;;;3.03;1.23;;;16.80;86.40;;;;;;2046132;28;20055;-90
2021/08/26 02:10:15;;;;;;;4.50;1.60;;;16.70;86.20;;;;;;2041381;29;20039;-92
2021/08/26 02:11:16;;;;;;;4.03;1.30;;;16.70;86.20;;;;;;2040921;28;20040;-92
2021/08/26 02:12:17;;;;;;;3.65;1.10;;;16.70;86.10;;;;;;2050247;28;20039;-91
2021/08/26 02:13:17;;;;;;;4.28;1.33;;;16.70;86.10;;;;;;2050104;28;20043;-91
2021/08/26 02:14:18;;;;;;;4.38;1.40;;;16.70;86.10;;;;;;2049941;29;20098;-93
2021/08/26 02:15:19;;;;;;;4.18;1.60;;;16.70;86.10;;;;;;2042128;29;20044;-91
2021/08/26 02:16:20;;;;;;;3.38;1.35;;;16.70;86.20;;;;;;2038627;29;20051;-91
2021/08/26 02:17:21;;;;;;;4.97;1.40;;;16.70;86.80;;;;;;2048840;28;20067;-92
2021/08/26 02:18:22;;;;;;;4.40;1.70;;;16.60;86.00;;;;;;2048641;28;20510;-91
2021/08/26 02:19:23;;;;;;;4.15;1.48;;;16.70;86.10;;;;;;2049695;29;20047;-92
2021/08/26 02:20:23;;;;;;;5.47;1.40;;;16.60;86.00;;;;;;2049855;29;20482;-91
2021/08/26 02:21:27;;;;;;;4.80;1.45;;;16.60;86.00;;;;;;2050005;28;20050;-91
2021/08/26 02:22:28;;;;;;;3.00;1.25;;;16.60;85.90;;;;;;2057467;28;20081;-92
2021/08/26 02:23:29;;;;;;;4.43;1.35;;;16.60;86.00;;;;;;2058369;28;20436;-92
2021/08/26 02:24:30;;;;;;;3.22;1.30;;;16.60;86.00;;;;;;2058073;28;20122;-92
2021/08/26 02:25:30;;;;;;;3.90;1.50;;;16.70;86.00;;;;;;2042427;29;20035;-91
2021/08/26 02:26:32;;;;;;;3.70;1.40;;;16.70;86.00;;;;;;2049924;29;20343;-91
2021/08/26 02:27:32;;;;;;;4.53;1.55;;;16.70;85.90;;;;;;2057257;28;20035;-92
2021/08/26 02:28:33;;;;;;;4.78;1.30;;;16.70;85.90;;;;;;2055617;28;20580;-92
2021/08/26 02:29:34;;;;;;;4.00;1.40;;;16.60;85.80;;;;;;2047524;28;20031;-92
2021/08/26 02:30:35;;;;;;;4.05;1.17;;;16.70;85.90;;;;;;2057420;28;20121;-91
2021/08/26 02:31:35;;;;;;;3.60;1.10;;;16.70;85.90;;;;;;2049671;28;20043;-91
2021/08/26 02:32:36;;;;;;;3.63;1.38;;;16.70;85.90;;;;;;2042098;29;20502;-91
2021/08/26 02:33:37;;;;;;;3.72;1.33;;;16.70;85.90;;;;;;2049206;28;20043;-92
2021/08/26 02:34:37;;;;;;;3.65;1.30;;;16.70;85.80;;;;;;2052822;28;20035;-92
2021/08/26 02:35:38;;;;;;;4.47;1.35;;;16.70;85.80;;;;;;2056096;28;20401;-91
2021/08/26 02:36:39;;;;;;;2.72;1.20;;;16.70;85.80;;;;;;2057668;28;20042;-91
2021/08/26 02:37:39;;;;;;;4.95;1.40;;;16.60;85.80;;;;;;2058072;28;20058;-91
2021/08/26 02:38:41;;;;;;;3.25;1.20;;;16.60;85.80;;;;;;2050134;29;20490;-92
2021/08/26 02:39:42;;;;;;;3.58;1.50;;;16.60;85.70;;;;;;2041583;28;20068;-92
2021/08/26 02:40:43;;;;;;;3.63;1.52;;;16.60;85.70;;;;;;2048703;28;20387;-91
2021/08/26 02:41:44;;;;;;;6.00;1.88;;;16.70;85.70;;;;;;2058370;28;20074;-92
2021/08/26 02:42:44;;;;;;;3.95;1.40;;;16.60;85.60;;;;;;2057116;28;20043;-92
2021/08/26 02:43:45;;;;;;;3.00;1.13;;;16.60;85.70;;;;;;2066098;28;20042;-91
2021/08/26 02:44:45;;;;;;;3.97;1.50;;;16.60;85.70;;;;;;2052654;28;20041;-92
2021/08/26 02:45:46;;;;;;;4.90;1.40;;;16.60;85.70;;;;;;2047253;28;20188;-92
2021/08/26 02:46:47;;;;;;;3.10;1.52;;;16.60;85.70;;;;;;2058893;28;20039;-91
2021/08/26 02:47:48;;;;;;;4.50;1.63;;;16.60;85.60;;;;;;2055114;28;20039;-92
2021/08/26 02:48:48;;;;;;;4.10;1.52;;;16.60;85.70;;;;;;2056741;28;20532;-91
2021/08/26 02:49:49;;;;;;;5.45;1.80;;;16.60;85.70;;;;;;2057625;28;20039;-91
2021/08/26 02:50:50;;;;;;;4.85;1.50;;;16.60;85.70;;;;;;2057271;28;20078;-92
2021/08/26 02:51:50;;;;;;;4.40;1.50;;;16.60;85.70;;;;;;2058163;28;20466;-92
2021/08/26 02:52:51;;;;;;;3.35;1.35;;;16.60;85.70;;;;;;2050005;28;20039;-92
2021/08/26 02:53:51;;;;;;;4.32;1.60;;;16.60;85.70;;;;;;2034243;29;20036;-92
2021/08/26 02:54:52;;;;;;;3.75;1.30;;;16.60;85.70;;;;;;2048295;28;20102;-91
2021/08/26 02:55:53;;;;;;;4.10;1.58;;;16.60;86.30;;;;;;2052795;28;20035;-91
2021/08/26 02:56:53;;;;;;;5.60;1.73;;;16.60;86.30;;;;;;2050237;29;20280;-91
2021/08/26 02:57:54;;;;;;;3.88;1.40;;;16.60;85.60;;;;;;2041864;29;20134;-92
2021/08/26 02:58:55;;;;;;;3.90;1.60;;;16.60;85.70;;;;;;2045972;28;20158;-91
2021/08/26 02:59:55;;;;;;;7.45;1.80;;;16.50;85.80;;;;;;2064704;28;20560;-92
2021/08/26 03:00:56;;;;;;;5.80;1.65;;;16.60;85.80;;;;;;2056708;28;20034;-92
2021/08/26 03:01:57;;;;;;;5.68;1.63;;;16.50;85.80;;;;;;2058073;28;20063;-92
2021/08/26 03:02:57;;;;;;;5.32;1.88;;;16.50;85.90;;;;;;2057051;28;20042;-91
2021/08/26 03:03:58;;;;;;;4.43;1.90;;;16.50;85.90;;;;;;2057294;28;20038;-92
2021/08/26 03:04:58;;;;;;;5.10;1.70;;;16.50;85.90;;;;;;2057671;28;20110;-92
2021/08/26 03:05:59;;;;;;;3.92;1.77;;;16.50;85.90;;;;;;2057989;28;20433;-92
2021/08/26 03:07:00;;;;;;;3.33;1.40;;;16.50;85.90;;;;;;2057682;28;20121;-92
2021/08/26 03:08:00;;;;;;;3.60;1.60;;;16.50;85.90;;;;;;2049016;29;20035;-91
2021/08/26 03:09:01;;;;;;;5.82;1.63;;;16.50;85.90;;;;;;2047381;28;20035;-92
2021/08/26 03:10:02;;;;;;;6.10;1.70;;;16.50;86.00;;;;;;2049438;28;20044;-92
2021/08/26 03:11:03;;;;;;;4.60;1.65;;;16.50;85.90;;;;;;2048678;29;20082;-91
2021/08/26 03:12:05;;;;;;;5.68;1.73;;;16.50;85.90;;;;;;2057787;28;20031;-92
2021/08/26 03:13:06;;;;;;;3.70;1.70;;;16.40;85.90;;;;;;2061921;28;20072;-92
2021/08/26 03:14:06;;;;;;;5.18;1.50;;;16.40;86.00;;;;;;2048646;29;20055;-92
2021/08/26 03:15:08;;;;;;;5.75;1.98;;;16.40;86.00;;;;;;2041441;29;20502;-92
2021/08/26 03:16:08;;;;;;;5.00;1.70;;;16.40;86.10;;;;;;2049394;28;20039;-92
2021/08/26 03:17:09;;;;;;;5.63;1.88;;;16.40;86.10;;;;;;2049603;28;20042;-92
2021/08/26 03:18:10;;;;;;;4.68;1.60;;;16.30;86.10;;;;;;2057178;28;20098;-92
2021/08/26 03:19:10;;;;;;;4.53;1.40;;;16.40;86.70;;;;;;2049374;28;20158;-92
2021/08/26 03:20:13;;;;;;;3.92;1.45;;;16.30;86.10;;;;;;2049142;28;20134;-92
2021/08/26 03:21:14;;;;;;;5.93;1.75;;;16.30;86.20;;;;;;2042218;29;20495;-92
2021/08/26 03:22:15;;;;;;;4.15;1.52;;;16.30;86.10;;;;;;2049975;28;20039;-92
2021/08/26 03:23:15;;;;;;;5.47;1.73;;;16.30;86.20;;;;;;2057815;28;20045;-91
2021/08/26 03:24:16;;;;;;;6.07;1.73;;;16.30;86.20;;;;;;2057721;28;20071;-91
2021/08/26 03:25:17;;;;;;;4.53;1.70;;;16.30;86.30;;;;;;2054756;28;20039;-92
2021/08/26 03:26:17;;;;;;;4.47;1.70;;;16.30;86.30;;;;;;2057105;28;20039;-92
2021/08/26 03:27:18;;;;;;;5.30;1.80;;;16.30;86.30;;;;;;2049654;29;20061;-92
2021/08/26 03:28:20;;;;;;;5.55;1.88;;;16.30;86.30;;;;;;2055452;28;20049;-93
2021/08/26 03:29:21;;;;;;;4.68;1.80;;;16.30;86.30;;;;;;2058021;28;20043;-92
2021/08/26 03:30:22;;;;;;;6.32;1.92;;;16.30;86.40;;;;;;2059393;28;20062;-92
2021/08/26 03:31:22;;;;;;;5.40;1.95;;;16.30;86.30;;;;;;2058681;28;20043;-92
2021/08/26 03:32:23;;;;;;;5.05;1.88;;;16.30;86.40;;;;;;2057274;28;20062;-92
2021/08/26 03:33:24;;;;;;;6.03;1.85;;;16.30;86.40;;;;;;2049619;28;20402;-92
2021/08/26 03:34:24;;;;;;;6.07;1.85;;;16.30;86.40;;;;;;2049768;28;20083;-91
2021/08/26 03:35:25;;;;;;;5.80;2.08;;;16.30;86.30;;;;;;2049773;29;20402;-91
2021/08/26 03:36:28;;;;;;;4.30;1.60;;;16.30;86.40;;;;;;2057761;28;20042;-91
2021/08/26 03:37:29;;;;;;;5.47;1.60;;;16.30;86.40;;;;;;2049460;28;20039;-92
2021/08/26 03:38:31;;;;;;;5.28;1.80;;;16.30;86.40;;;;;;2048868;28;20142;-92
2021/08/26 03:39:31;;;;;;;5.22;1.60;;;16.30;86.50;;;;;;2062382;28;20038;-91
2021/08/26 03:40:32;;;;;;;5.30;1.92;;;16.30;86.50;;;;;;2049529;29;20059;-92
2021/08/26 03:41:33;;;;;;;4.28;1.75;;;16.30;86.50;;;;;;2049825;28;20089;-91
2021/08/26 03:42:34;;;;;;;5.65;1.83;;;16.30;86.60;;;;;;2048328;28;21756;-91
2021/08/26 03:43:34;;;;;;;6.20;2.10;;;16.30;86.60;;;;;;2049532;28;20058;-92
2021/08/26 03:44:35;;;;;;;6.00;1.90;;;16.30;86.50;;;;;;2056274;28;20067;-91
2021/08/26 03:45:36;;;;;;;6.68;2.00;;;16.30;86.60;;;;;;2057408;28;20417;-92
2021/08/26 03:46:37;;;;;;;4.32;1.50;;;16.30;86.60;;;;;;2058026;28;20197;-93
2021/08/26 03:47:37;;;;;;;4.80;1.70;;;16.30;86.60;;;;;;2049065;29;20102;-91
2021/08/26 03:48:38;;;;;;;5.60;1.60;;;16.30;86.60;;;;;;2039947;29;20551;-91
2021/08/26 03:49:38;;;;;;;5.28;1.65;;;16.30;86.70;;;;;;2048652;28;20065;-91
2021/08/26 03:50:39;;;;;;;4.80;2.03;;;16.30;86.80;;;;;;2041051;29;20040;-92
2021/08/26 03:51:40;;;;;;;6.28;2.08;;;16.30;86.80;;;;;;2057483;28;20051;-91
2021/08/26 03:52:41;;;;;;;4.35;1.75;;;16.30;86.80;;;;;;2059034;28;20383;-91
2021/08/26 03:53:42;;;;;;;6.00;1.73;;;16.30;86.80;;;;;;2043269;29;20139;-92
2021/08/26 03:54:42;;;;;;;4.90;1.80;;;16.30;86.90;;;;;;2043813;29;20084;-91
2021/08/26 03:55:43;;;;;;;5.55;1.80;;;16.30;86.90;;;;;;2045652;29;20036;-92
2021/08/26 03:56:43;;;;;;;5.18;1.80;;;16.30;86.90;;;;;;2041633;29;20126;-92
2021/08/26 03:57:44;;;;;;;5.57;1.80;;;16.30;86.80;;;;;;2051305;28;20071;-91
2021/08/26 03:58:44;;;;;;;5.85;1.80;;;16.30;86.80;;;;;;2040756;29;20062;-92
2021/08/26 03:59:45;;;;;;;6.05;1.90;;;16.30;86.80;;;;;;2048572;28;20494;-92
2021/08/26 04:00:46;;;;;;;5.75;1.88;;;16.30;86.90;;;;;;2057052;28;20057;-91
2021/08/26 04:01:46;;;;;;;5.47;1.70;;;16.30;86.90;;;;;;2057450;28;20043;-92
2021/08/26 04:02:47;;;;;;;4.45;1.80;;;16.30;86.80;;;;;;2057856;28;20129;-91
2021/08/26 04:03:48;;;;;;;6.35;2.03;;;16.30;86.90;;;;;;2058524;28;20043;-93
2021/08/26 04:04:48;;;;;;;4.30;1.63;;;16.30;86.90;;;;;;2058941;28;20041;-91
2021/08/26 04:05:49;;;;;;;4.85;1.70;;;16.30;86.90;;;;;;2059535;28;20046;-91
2021/08/26 04:06:49;;;;;;;5.47;1.80;;;16.30;86.90;;;;;;2052031;28;20042;-91
2021/08/26 04:07:50;;;;;;;4.47;1.60;;;16.30;86.90;;;;;;2054847;28;20047;-92
2021/08/26 04:08:51;;;;;;;7.82;1.98;;;16.30;86.90;;;;;;2039701;29;20122;-92
2021/08/26 04:09:52;;;;;;;5.30;1.70;;;16.30;86.80;;;;;;2033575;29;20092;-91
2021/08/26 04:10:52;;;;;;;4.05;1.50;;;16.30;86.80;;;;;;2048604;28;20088;-91
2021/08/26 04:11:53;;;;;;;5.50;1.70;;;16.30;86.80;;;;;;2033597;29;20037;-91
2021/08/26 04:12:54;;;;;;;6.68;2.00;;;16.30;86.80;;;;;;2025633;29;20041;-92
2021/08/26 04:13:54;;;;;;;4.65;1.70;;;16.30;86.70;;;;;;2049369;28;20035;-91
2021/08/26 04:14:55;;;;;;;5.18;1.80;;;16.30;86.70;;;;;;2049093;28;20098;-91
2021/08/26 04:15:55;;;;;;;4.80;1.63;;;16.30;86.70;;;;;;2048402;28;20043;-91
2021/08/26 04:16:56;;;;;;;5.30;1.75;;;16.30;86.70;;;;;;2057469;28;20062;-92
2021/08/26 04:17:57;;;;;;;3.85;1.58;;;16.30;86.70;;;;;;2056647;28;20073;-92
2021/08/26 04:18:57;;;;;;;4.57;1.63;;;16.30;86.70;;;;;;2047906;28;20047;-92
2021/08/26 04:19:58;;;;;;;6.20;1.75;;;16.30;86.70;;;;;;2040667;29;20032;-92
2021/08/26 04:20:58;;;;;;;3.92;1.80;;;16.30;86.70;;;;;;2049344;28;20058;-92
2021/08/26 04:21:59;;;;;;;4.85;1.85;;;16.30;86.60;;;;;;2049074;29;20035;-92
2021/08/26 04:23:04;;;;;;;5.22;1.70;;;16.30;86.60;;;;;;2057397;28;20133;-91
2021/08/26 04:24:05;;;;;;;5.28;1.80;;;16.30;86.60;;;;;;2050862;28;20491;-92
2021/08/26 04:25:06;;;;;;;5.35;1.63;;;16.20;86.60;;;;;;2049032;29;20057;-91
2021/08/26 04:26:07;;;;;;;3.35;1.52;;;16.20;86.50;;;;;;2049675;28;20058;-92
2021/08/26 04:27:08;;;;;;;5.13;1.67;;;16.20;86.50;;;;;;2056559;28;20035;-92
2021/08/26 04:28:09;;;;;;;3.95;1.58;;;16.20;86.70;;;;;;2063907;28;20049;-92
2021/08/26 04:29:09;;;;;;;6.43;1.70;;;16.20;87.10;;;;;;2048907;28;20036;-91
2021/08/26 04:30:11;;;;;;;4.40;1.60;;;16.20;86.40;;;;;;2039249;29;20035;-91
2021/08/26 04:31:12;;;;;;;4.60;1.63;;;16.20;86.40;;;;;;2048945;28;20039;-91
2021/08/26 04:32:12;;;;;;;4.82;1.60;;;16.20;86.40;;;;;;2054867;28;20035;-93
2021/08/26 04:33:13;;;;;;;4.43;1.55;;;16.20;86.40;;;;;;2049368;29;20043;-92
2021/08/26 04:34:14;;;;;;;4.07;1.50;;;16.20;86.40;;;;;;2056441;28;20034;-91
2021/08/26 04:35:15;;;;;;;4.85;1.70;;;16.10;86.30;;;;;;2041471;29;20127;-92
2021/08/26 04:36:15;;;;;;;4.25;1.52;;;16.10;86.20;;;;;;2041062;29;20195;-92
2021/08/26 04:37:16;;;;;;;4.68;1.50;;;16.10;86.30;;;;;;2033436;29;20154;-92
2021/08/26 04:38:16;;;;;;;4.95;1.50;;;16.10;86.30;;;;;;2040646;29;20051;-91
2021/08/26 04:39:17;;;;;;;8.52;1.85;;;16.10;86.20;;;;;;2062648;28;20041;-92
2021/08/26 04:40:18;;;;;;;6.70;1.80;;;16.10;86.10;;;;;;2050991;29;20560;-89
2021/08/26 04:41:18;;;;;;;5.00;1.70;;;16.10;86.10;;;;;;2048446;29;20071;-92
2021/08/26 04:42:19;;;;;;;6.32;1.88;;;16.10;86.10;;;;;;2056852;28;20063;-91
2021/08/26 04:43:20;;;;;;;6.78;1.92;;;16.10;86.10;;;;;;2057503;28;20039;-92
2021/08/26 04:44:20;;;;;;;4.03;1.60;;;16.10;86.10;;;;;;2057244;28;20034;-91
2021/08/26 04:45:21;;;;;;;5.65;1.42;;;16.10;86.10;;;;;;2054411;28;20043;-92
2021/08/26 04:46:21;;;;;;;4.50;1.40;;;16.10;86.00;;;;;;2054968;29;20645;-91
2021/08/26 04:47:22;;;;;;;5.50;1.30;;;16.10;86.00;;;;;;2055782;28;20059;-92
2021/08/26 04:48:23;;;;;;;5.55;1.40;;;16.00;86.60;;;;;;2058071;28;20115;-91
2021/08/26 04:49:24;;;;;;;3.33;1.15;;;16.00;86.00;;;;;;2050406;28;20044;-92
2021/08/26 04:50:24;;;;;;;5.18;1.40;;;16.00;86.00;;;;;;2050277;28;20126;-91
2021/08/26 04:51:25;;;;;;;5.20;1.45;;;16.00;86.10;;;;;;2049576;28;20051;-92
2021/08/26 04:52:25;;;;;;;5.63;1.80;;;16.00;86.10;;;;;;2049536;28;20042;-92
2021/08/26 04:53:26;;;;;;;5.45;1.48;;;16.00;86.10;;;;;;2048862;28;20047;-92
2021/08/26 04:54:28;;;;;;;4.30;1.33;;;16.00;86.10;;;;;;2043436;29;20176;-92
2021/08/26 04:55:29;;;;;;;5.20;1.60;;;16.00;86.00;;;;;;2056535;28;20070;-85
2021/08/26 04:56:29;;;;;;;4.53;1.40;;;16.00;86.00;;;;;;2058710;28;20080;-91
2021/08/26 04:57:30;;;;;;;5.82;1.73;;;16.10;86.10;;;;;;2041625;29;20126;-92
2021/08/26 04:58:30;;;;;;;3.38;1.63;;;16.10;86.00;;;;;;2035856;29;20116;-92
2021/08/26 04:59:31;;;;;;;2.72;1.02;;;16.10;86.00;;;;;;2043102;29;20031;-92
2021/08/26 05:00:32;;;;;;;5.70;1.35;;;16.10;86.00;;;;;;2054507;28;20086;-90
2021/08/26 05:01:35;;;;;;;3.97;1.50;;;16.10;86.00;;;;;;2059422;28;20046;-91
2021/08/26 05:02:36;;;;;;;5.10;1.60;;;16.10;86.00;;;;;;2051492;28;20507;-91
2021/08/26 05:03:36;;;;;;;4.65;1.38;;;16.10;86.00;;;;;;2055376;28;20031;-91
2021/08/26 05:04:37;;;;;;;3.85;1.40;;;16.10;86.00;;;;;;2066983;28;20038;-90
2021/08/26 05:05:38;;;;;;;5.57;1.60;;;16.10;86.00;;;;;;2058712;28;20051;-91
2021/08/26 05:06:38;;;;;;;4.55;1.35;;;16.10;86.00;;;;;;2058389;28;20378;-92
2021/08/26 05:07:39;;;;;;;5.65;1.35;;;16.10;86.00;;;;;;2052104;28;20039;-94
2021/08/26 05:08:39;;;;;;;5.57;1.60;;;16.10;86.00;;;;;;2054766;28;20034;-92
2021/08/26 05:09:40;;;;;;;4.53;1.45;;;16.10;86.00;;;;;;2039402;29;20123;-92
2021/08/26 05:10:41;;;;;;;3.72;1.52;;;16.10;86.00;;;;;;2032266;29;20329;-94
2021/08/26 05:11:41;;;;;;;3.90;1.20;;;16.10;86.00;;;;;;2054538;29;20062;-93
2021/08/26 05:12:42;;;;;;;7.20;2.22;;;16.10;86.00;;;;;;2044417;29;20505;-91
2021/08/26 05:13:43;;;;;;;4.47;1.50;;;16.10;86.00;;;;;;2026920;29;20045;-92
2021/08/26 05:14:43;;;;;;;5.20;1.60;;;16.10;86.00;;;;;;2040791;29;20036;-92
2021/08/26 05:15:44;;;;;;;4.65;1.67;;;16.10;86.10;;;;;;2047534;28;20050;-93
2021/08/26 05:16:44;;;;;;;3.53;1.20;;;16.10;86.10;;;;;;2059692;28;20039;-93
2021/08/26 05:17:45;;;;;;;3.78;1.40;;;16.10;86.10;;;;;;2040251;29;20032;-92
2021/08/26 05:18:46;;;;;;;4.53;1.63;;;16.10;86.10;;;;;;2036170;29;20032;-90
2021/08/26 05:19:47;;;;;;;4.20;1.30;;;16.10;86.10;;;;;;2046598;29;20125;-91
2021/08/26 05:20:47;;;;;;;4.90;1.50;;;16.10;86.10;;;;;;2046937;29;20062;-93
2021/08/26 05:21:53;;;;;;;4.38;1.40;;;16.10;86.10;;;;;;2035880;29;20127;-90
2021/08/26 05:22:54;;;;;;;6.93;1.85;;;16.10;86.10;;;;;;2029525;29;20500;-90
2021/08/26 05:23:54;;;;;;;3.55;1.27;;;16.10;86.10;;;;;;2035724;29;20499;-91